メインページ
METAR-TAF:

METAR-TAF

空港 :

釧路空港

釧路, 日本

緯度: 43-02N, 経度: 144-12E, 海抜: 95m

現時点の気象観測

当レポートは59分前の11:00(UTC)に作成
南西の風 3kt
気温 7°C
湿度 76%
気圧 1017 hPa
視程10km以上
1,500メートル以下は雲なし、積乱雲なし

METAR: RJCK 201100Z 22003KT CAVOK 07/03 Q1017

時間: 20:59 (11:59 UTC)

予報

当レポートは50分前の11:09(UTC)に作成
予報は20日の 12時(UTC)から 21日の 18時(UTC)まで有効
南/南西の風 5kt
視程10km以上
高度3000ftの雲はほとんどない
20日の 14時(UTC)から 20日の 16時(UTC)まで徐々に
の風 4kt
20日の 22時(UTC)から 21日の 00時(UTC)まで徐々に
の風 12kt

TAF: RJCK 201109Z 2012/2118 20005KT 9999 FEW030 BECMG 2014/2016 36004KT BECMG 2022/2100 19012KT

4,000以上の空港の気象観測と天気予報(METAR報とTAF報)

利用可能な観測所は地図上に黄色い丸と赤い丸で示す。

丸の上にカーソルを重ねると観測所名を参照できる。

次にクリックすると気象観測と天気予報を参照できる。

マップの切り替え:黒色「×」印の緑ボタンをクリックして拡大、「-」印の緑ボタンをクリックして縮小、緑色の三角印をクリックして隣りの地図に切り替え


METAR-TAF: